sensor_id;sensor_type;location;lat;lon;timestamp;temperature;humidity
27384;DHT22;14851;51.166;4.760;2023-04-28T00:00:09;10.70;99.90
27384;DHT22;14851;51.166;4.760;2023-04-28T00:02:38;10.70;99.90
27384;DHT22;14851;51.166;4.760;2023-04-28T00:05:04;10.70;99.90
27384;DHT22;14851;51.166;4.760;2023-04-28T00:07:30;10.80;99.90
27384;DHT22;14851;51.166;4.760;2023-04-28T00:09:56;10.70;99.90
27384;DHT22;14851;51.166;4.760;2023-04-28T00:12:22;10.70;99.90
27384;DHT22;14851;51.166;4.760;2023-04-28T00:14:48;10.70;99.90
27384;DHT22;14851;51.166;4.760;2023-04-28T00:17:14;10.70;99.90
27384;DHT22;14851;51.166;4.760;2023-04-28T00:19:40;10.70;99.90
27384;DHT22;14851;51.166;4.760;2023-04-28T00:22:06;10.70;99.90
27384;DHT22;14851;51.166;4.760;2023-04-28T00:24:35;10.60;99.90
27384;DHT22;14851;51.166;4.760;2023-04-28T00:27:01;10.60;99.90
27384;DHT22;14851;51.166;4.760;2023-04-28T00:29:31;10.60;99.90
27384;DHT22;14851;51.166;4.760;2023-04-28T00:31:57;10.60;99.90
27384;DHT22;14851;51.166;4.760;2023-04-28T00:34:23;10.70;99.90
27384;DHT22;14851;51.166;4.760;2023-04-28T00:36:49;10.70;99.90
27384;DHT22;14851;51.166;4.760;2023-04-28T00:39:15;10.60;99.90
27384;DHT22;14851;51.166;4.760;2023-04-28T00:41:43;10.70;99.90
27384;DHT22;14851;51.166;4.760;2023-04-28T00:44:11;10.70;99.90
27384;DHT22;14851;51.166;4.760;2023-04-28T00:46:39;10.70;99.90
27384;DHT22;14851;51.166;4.760;2023-04-28T00:49:07;10.70;99.90
27384;DHT22;14851;51.166;4.760;2023-04-28T00:51:33;10.70;99.90
27384;DHT22;14851;51.166;4.760;2023-04-28T00:54:01;10.60;99.90
27384;DHT22;14851;51.166;4.760;2023-04-28T00:56:30;10.60;99.90
27384;DHT22;14851;51.166;4.760;2023-04-28T00:58:58;10.60;99.90
27384;DHT22;14851;51.166;4.760;2023-04-28T01:01:24;10.60;99.90
27384;DHT22;14851;51.166;4.760;2023-04-28T01:03:50;10.70;99.90
27384;DHT22;14851;51.166;4.760;2023-04-28T01:06:17;10.70;99.90
27384;DHT22;14851;51.166;4.760;2023-04-28T01:08:47;10.70;99.90
27384;DHT22;14851;51.166;4.760;2023-04-28T01:11:15;10.70;99.90
27384;DHT22;14851;51.166;4.760;2023-04-28T01:14:13;10.70;99.90
27384;DHT22;14851;51.166;4.760;2023-04-28T01:16:40;10.70;99.90
27384;DHT22;14851;51.166;4.760;2023-04-28T01:19:20;10.70;99.90
27384;DHT22;14851;51.166;4.760;2023-04-28T01:21:49;10.70;99.90
27384;DHT22;14851;51.166;4.760;2023-04-28T01:24:23;10.70;99.90
27384;DHT22;14851;51.166;4.760;2023-04-28T01:26:49;10.70;99.90
27384;DHT22;14851;51.166;4.760;2023-04-28T01:29:15;10.70;99.90
27384;DHT22;14851;51.166;4.760;2023-04-28T01:31:41;10.70;99.90
27384;DHT22;14851;51.166;4.760;2023-04-28T01:34:07;10.60;99.90
27384;DHT22;14851;51.166;4.760;2023-04-28T01:36:34;10.70;99.90
27384;DHT22;14851;51.166;4.760;2023-04-28T01:39:01;10.60;99.90
27384;DHT22;14851;51.166;4.760;2023-04-28T01:41:27;10.60;99.90
27384;DHT22;14851;51.166;4.760;2023-04-28T01:43:53;10.60;99.90
27384;DHT22;14851;51.166;4.760;2023-04-28T01:46:19;10.60;99.90
27384;DHT22;14851;51.166;4.760;2023-04-28T01:48:45;10.70;99.90
27384;DHT22;14851;51.166;4.760;2023-04-28T01:51:13;10.70;99.90
27384;DHT22;14851;51.166;4.760;2023-04-28T01:53:40;10.60;99.90
27384;DHT22;14851;51.166;4.760;2023-04-28T01:56:06;10.60;99.90
27384;DHT22;14851;51.166;4.760;2023-04-28T01:58:33;10.60;99.90
27384;DHT22;14851;51.166;4.760;2023-04-28T02:00:59;10.50;99.90
27384;DHT22;14851;51.166;4.760;2023-04-28T02:03:25;10.50;99.90
27384;DHT22;14851;51.166;4.760;2023-04-28T02:05:53;10.50;99.90
27384;DHT22;14851;51.166;4.760;2023-04-28T02:08:19;10.60;99.90
27384;DHT22;14851;51.166;4.760;2023-04-28T02:10:47;10.60;99.90
27384;DHT22;14851;51.166;4.760;2023-04-28T02:13:16;10.60;99.90
27384;DHT22;14851;51.166;4.760;2023-04-28T02:15:42;10.60;99.90
27384;DHT22;14851;51.166;4.760;2023-04-28T02:18:11;10.60;99.90
27384;DHT22;14851;51.166;4.760;2023-04-28T02:20:40;10.70;99.90
27384;DHT22;14851;51.166;4.760;2023-04-28T02:23:07;10.60;99.90
27384;DHT22;14851;51.166;4.760;2023-04-28T02:25:35;10.60;99.90
27384;DHT22;14851;51.166;4.760;2023-04-28T02:28:03;10.50;99.90
27384;DHT22;14851;51.166;4.760;2023-04-28T02:30:29;10.50;99.90
27384;DHT22;14851;51.166;4.760;2023-04-28T02:32:55;10.50;99.90
27384;DHT22;14851;51.166;4.760;2023-04-28T02:35:21;10.50;99.90
27384;DHT22;14851;51.166;4.760;2023-04-28T02:37:48;10.50;99.90
27384;DHT22;14851;51.166;4.760;2023-04-28T02:40:15;10.50;99.90
27384;DHT22;14851;51.166;4.760;2023-04-28T02:42:42;10.50;99.90
27384;DHT22;14851;51.166;4.760;2023-04-28T02:45:08;10.50;99.90
27384;DHT22;14851;51.166;4.760;2023-04-28T02:47:34;10.50;99.90
27384;DHT22;14851;51.166;4.760;2023-04-28T02:50:00;10.50;99.90
27384;DHT22;14851;51.166;4.760;2023-04-28T02:52:25;10.50;99.90
27384;DHT22;14851;51.166;4.760;2023-04-28T02:54:51;10.50;99.90
27384;DHT22;14851;51.166;4.760;2023-04-28T02:57:24;10.50;99.90
27384;DHT22;14851;51.166;4.760;2023-04-28T02:59:54;10.50;99.90
27384;DHT22;14851;51.166;4.760;2023-04-28T03:02:21;10.50;99.90
27384;DHT22;14851;51.166;4.760;2023-04-28T03:04:47;10.50;99.90
27384;DHT22;14851;51.166;4.760;2023-04-28T03:07:13;10.50;99.90
27384;DHT22;14851;51.166;4.760;2023-04-28T03:09:41;10.50;99.90
27384;DHT22;14851;51.166;4.760;2023-04-28T03:12:07;10.50;99.90
27384;DHT22;14851;51.166;4.760;2023-04-28T03:14:33;10.50;99.90
27384;DHT22;14851;51.166;4.760;2023-04-28T03:16:59;10.50;99.90
27384;DHT22;14851;51.166;4.760;2023-04-28T03:19:25;10.50;99.90
27384;DHT22;14851;51.166;4.760;2023-04-28T03:21:51;10.50;99.90
27384;DHT22;14851;51.166;4.760;2023-04-28T03:24:17;10.50;99.90
27384;DHT22;14851;51.166;4.760;2023-04-28T03:26:45;10.50;99.90
27384;DHT22;14851;51.166;4.760;2023-04-28T03:29:11;10.50;99.90
27384;DHT22;14851;51.166;4.760;2023-04-28T03:31:37;10.60;99.90
27384;DHT22;14851;51.166;4.760;2023-04-28T03:34:03;10.50;99.90
27384;DHT22;14851;51.166;4.760;2023-04-28T03:36:31;10.60;99.90
27384;DHT22;14851;51.166;4.760;2023-04-28T03:39:04;10.50;99.90
27384;DHT22;14851;51.166;4.760;2023-04-28T03:41:31;10.50;99.90
27384;DHT22;14851;51.166;4.760;2023-04-28T03:44:15;10.60;99.90
27384;DHT22;14851;51.166;4.760;2023-04-28T03:46:48;10.50;99.90
27384;DHT22;14851;51.166;4.760;2023-04-28T03:49:14;10.60;99.90
27384;DHT22;14851;51.166;4.760;2023-04-28T03:51:41;10.60;99.90
27384;DHT22;14851;51.166;4.760;2023-04-28T03:54:07;10.50;99.90
27384;DHT22;14851;51.166;4.760;2023-04-28T03:56:37;10.50;99.90
27384;DHT22;14851;51.166;4.760;2023-04-28T03:59:03;10.50;99.90
27384;DHT22;14851;51.166;4.760;2023-04-28T04:01:29;10.50;99.90
27384;DHT22;14851;51.166;4.760;2023-04-28T04:03:55;10.60;99.90
27384;DHT22;14851;51.166;4.760;2023-04-28T04:06:22;10.50;99.90
27384;DHT22;14851;51.166;4.760;2023-04-28T04:08:48;10.50;99.90
27384;DHT22;14851;51.166;4.760;2023-04-28T04:11:15;10.60;99.90
27384;DHT22;14851;51.166;4.760;2023-04-28T04:13:41;10.50;99.90
27384;DHT22;14851;51.166;4.760;2023-04-28T04:16:10;10.50;99.90
27384;DHT22;14851;51.166;4.760;2023-04-28T04:18:40;10.50;99.90
27384;DHT22;14851;51.166;4.760;2023-04-28T04:21:17;10.50;99.90
27384;DHT22;14851;51.166;4.760;2023-04-28T04:23:43;10.60;99.90
27384;DHT22;14851;51.166;4.760;2023-04-28T04:26:10;10.60;99.90
27384;DHT22;14851;51.166;4.760;2023-04-28T04:28:37;10.50;99.90
27384;DHT22;14851;51.166;4.760;2023-04-28T04:31:05;10.60;99.90
27384;DHT22;14851;51.166;4.760;2023-04-28T04:33:31;10.60;99.90
27384;DHT22;14851;51.166;4.760;2023-04-28T04:35:59;10.60;99.90
27384;DHT22;14851;51.166;4.760;2023-04-28T04:38:27;10.60;99.90
27384;DHT22;14851;51.166;4.760;2023-04-28T04:40:55;10.60;99.90
27384;DHT22;14851;51.166;4.760;2023-04-28T04:43:23;10.60;99.90
27384;DHT22;14851;51.166;4.760;2023-04-28T04:45:52;10.60;99.90
27384;DHT22;14851;51.166;4.760;2023-04-28T04:48:20;10.60;99.90
27384;DHT22;14851;51.166;4.760;2023-04-28T04:50:46;10.60;99.90
27384;DHT22;14851;51.166;4.760;2023-04-28T04:53:12;10.60;99.90
27384;DHT22;14851;51.166;4.760;2023-04-28T04:55:38;10.60;99.90
27384;DHT22;14851;51.166;4.760;2023-04-28T04:58:04;10.60;99.90
27384;DHT22;14851;51.166;4.760;2023-04-28T05:00:50;10.60;99.90
27384;DHT22;14851;51.166;4.760;2023-04-28T05:03:16;10.60;99.90
27384;DHT22;14851;51.166;4.760;2023-04-28T05:05:43;10.70;99.90
27384;DHT22;14851;51.166;4.760;2023-04-28T05:08:17;10.70;99.90
27384;DHT22;14851;51.166;4.760;2023-04-28T05:10:42;10.70;99.90
27384;DHT22;14851;51.166;4.760;2023-04-28T05:13:11;10.70;99.90
27384;DHT22;14851;51.166;4.760;2023-04-28T05:15:38;10.70;99.90
27384;DHT22;14851;51.166;4.760;2023-04-28T05:18:21;10.70;99.90
27384;DHT22;14851;51.166;4.760;2023-04-28T05:20:47;10.70;99.90
27384;DHT22;14851;51.166;4.760;2023-04-28T05:23:16;10.70;99.90
27384;DHT22;14851;51.166;4.760;2023-04-28T05:25:41;10.70;99.90
27384;DHT22;14851;51.166;4.760;2023-04-28T05:28:11;10.70;99.90
27384;DHT22;14851;51.166;4.760;2023-04-28T05:30:36;10.60;99.90
27384;DHT22;14851;51.166;4.760;2023-04-28T05:33:02;10.70;99.90
27384;DHT22;14851;51.166;4.760;2023-04-28T05:35:28;10.70;99.90
27384;DHT22;14851;51.166;4.760;2023-04-28T05:37:57;10.70;99.90
27384;DHT22;14851;51.166;4.760;2023-04-28T05:40:24;10.70;99.90
27384;DHT22;14851;51.166;4.760;2023-04-28T05:42:55;10.70;99.90
27384;DHT22;14851;51.166;4.760;2023-04-28T05:45:24;10.70;99.90
27384;DHT22;14851;51.166;4.760;2023-04-28T05:47:50;10.70;99.90
27384;DHT22;14851;51.166;4.760;2023-04-28T05:50:16;10.70;99.90
27384;DHT22;14851;51.166;4.760;2023-04-28T05:52:42;10.70;99.90
27384;DHT22;14851;51.166;4.760;2023-04-28T05:55:09;10.80;99.90
27384;DHT22;14851;51.166;4.760;2023-04-28T05:57:35;10.80;99.90
27384;DHT22;14851;51.166;4.760;2023-04-28T06:00:02;10.80;99.90
27384;DHT22;14851;51.166;4.760;2023-04-28T06:02:38;10.80;99.90
27384;DHT22;14851;51.166;4.760;2023-04-28T06:05:04;10.80;99.90
27384;DHT22;14851;51.166;4.760;2023-04-28T06:07:33;10.90;99.90
27384;DHT22;14851;51.166;4.760;2023-04-28T06:10:01;10.90;99.90
27384;DHT22;14851;51.166;4.760;2023-04-28T06:12:27;10.90;99.90
27384;DHT22;14851;51.166;4.760;2023-04-28T06:14:53;10.90;99.90
27384;DHT22;14851;51.166;4.760;2023-04-28T06:17:20;10.90;99.90
27384;DHT22;14851;51.166;4.760;2023-04-28T06:19:47;11.00;99.90
27384;DHT22;14851;51.166;4.760;2023-04-28T06:22:17;11.00;99.90
27384;DHT22;14851;51.166;4.760;2023-04-28T06:24:43;11.00;99.90
27384;DHT22;14851;51.166;4.760;2023-04-28T06:27:12;11.10;99.90
27384;DHT22;14851;51.166;4.760;2023-04-28T06:29:38;11.10;99.90
27384;DHT22;14851;51.166;4.760;2023-04-28T06:32:04;11.10;99.90
27384;DHT22;14851;51.166;4.760;2023-04-28T06:34:30;11.20;99.90
27384;DHT22;14851;51.166;4.760;2023-04-28T06:36:59;11.20;99.90
27384;DHT22;14851;51.166;4.760;2023-04-28T06:39:27;11.20;99.90
27384;DHT22;14851;51.166;4.760;2023-04-28T06:41:53;11.30;99.90
27384;DHT22;14851;51.166;4.760;2023-04-28T06:44:25;11.30;99.90
27384;DHT22;14851;51.166;4.760;2023-04-28T06:46:50;11.30;99.90
27384;DHT22;14851;51.166;4.760;2023-04-28T06:49:16;11.30;99.90
27384;DHT22;14851;51.166;4.760;2023-04-28T06:51:45;11.30;99.90
27384;DHT22;14851;51.166;4.760;2023-04-28T06:54:10;11.40;99.90
27384;DHT22;14851;51.166;4.760;2023-04-28T06:56:36;11.40;99.90
27384;DHT22;14851;51.166;4.760;2023-04-28T06:59:02;11.40;99.90
27384;DHT22;14851;51.166;4.760;2023-04-28T07:01:31;11.40;99.90
27384;DHT22;14851;51.166;4.760;2023-04-28T07:03:56;11.40;99.90
27384;DHT22;14851;51.166;4.760;2023-04-28T07:06:22;11.50;99.90
27384;DHT22;14851;51.166;4.760;2023-04-28T07:08:48;11.50;99.90
27384;DHT22;14851;51.166;4.760;2023-04-28T07:11:16;11.60;99.90
27384;DHT22;14851;51.166;4.760;2023-04-28T07:13:42;11.60;99.90
27384;DHT22;14851;51.166;4.760;2023-04-28T07:16:11;11.60;99.90
27384;DHT22;14851;51.166;4.760;2023-04-28T07:18:36;11.70;99.90
27384;DHT22;14851;51.166;4.760;2023-04-28T07:21:07;11.70;99.90
27384;DHT22;14851;51.166;4.760;2023-04-28T07:23:35;11.70;99.90
27384;DHT22;14851;51.166;4.760;2023-04-28T07:26:05;11.80;99.90
27384;DHT22;14851;51.166;4.760;2023-04-28T07:28:30;11.80;99.90
27384;DHT22;14851;51.166;4.760;2023-04-28T07:30:56;11.80;99.90
27384;DHT22;14851;51.166;4.760;2023-04-28T07:33:22;11.90;99.90
27384;DHT22;14851;51.166;4.760;2023-04-28T07:35:48;11.90;99.90
27384;DHT22;14851;51.166;4.760;2023-04-28T07:38:17;12.00;99.90
27384;DHT22;14851;51.166;4.760;2023-04-28T07:40:45;12.00;99.90
27384;DHT22;14851;51.166;4.760;2023-04-28T07:43:11;12.10;99.90
27384;DHT22;14851;51.166;4.760;2023-04-28T07:45:38;12.10;99.90
27384;DHT22;14851;51.166;4.760;2023-04-28T07:48:07;12.10;99.90
27384;DHT22;14851;51.166;4.760;2023-04-28T07:50:33;12.20;99.90
27384;DHT22;14851;51.166;4.760;2023-04-28T07:52:59;12.20;99.90
27384;DHT22;14851;51.166;4.760;2023-04-28T07:55:25;12.30;99.90
27384;DHT22;14851;51.166;4.760;2023-04-28T07:57:53;12.30;99.90
27384;DHT22;14851;51.166;4.760;2023-04-28T08:00:19;12.40;99.90
27384;DHT22;14851;51.166;4.760;2023-04-28T08:02:45;12.40;99.90
27384;DHT22;14851;51.166;4.760;2023-04-28T08:05:11;12.50;99.90
27384;DHT22;14851;51.166;4.760;2023-04-28T08:07:37;12.50;99.90
27384;DHT22;14851;51.166;4.760;2023-04-28T08:10:03;12.50;99.90
27384;DHT22;14851;51.166;4.760;2023-04-28T08:12:30;12.50;99.90
27384;DHT22;14851;51.166;4.760;2023-04-28T08:15:00;12.50;99.90
27384;DHT22;14851;51.166;4.760;2023-04-28T08:17:28;12.60;99.90
27384;DHT22;14851;51.166;4.760;2023-04-28T08:19:54;12.60;99.90
27384;DHT22;14851;51.166;4.760;2023-04-28T08:22:20;12.70;99.90
27384;DHT22;14851;51.166;4.760;2023-04-28T08:24:48;12.70;99.90
27384;DHT22;14851;51.166;4.760;2023-04-28T08:27:16;12.80;99.90
27384;DHT22;14851;51.166;4.760;2023-04-28T08:29:47;12.80;99.90
27384;DHT22;14851;51.166;4.760;2023-04-28T08:32:13;12.80;99.90
27384;DHT22;14851;51.166;4.760;2023-04-28T08:34:39;12.90;99.90
27384;DHT22;14851;51.166;4.760;2023-04-28T08:37:09;12.90;99.90
27384;DHT22;14851;51.166;4.760;2023-04-28T08:39:35;12.90;99.90
27384;DHT22;14851;51.166;4.760;2023-04-28T08:42:02;13.00;99.90
27384;DHT22;14851;51.166;4.760;2023-04-28T08:44:36;13.10;99.90
27384;DHT22;14851;51.166;4.760;2023-04-28T08:47:13;13.20;99.90
27384;DHT22;14851;51.166;4.760;2023-04-28T08:49:40;13.20;99.90
27384;DHT22;14851;51.166;4.760;2023-04-28T08:52:11;13.30;99.90
27384;DHT22;14851;51.166;4.760;2023-04-28T08:54:39;13.30;99.90
27384;DHT22;14851;51.166;4.760;2023-04-28T08:57:10;13.40;99.90
27384;DHT22;14851;51.166;4.760;2023-04-28T08:59:39;13.40;99.90
27384;DHT22;14851;51.166;4.760;2023-04-28T09:02:07;13.50;99.90
27384;DHT22;14851;51.166;4.760;2023-04-28T09:04:33;13.50;99.90
27384;DHT22;14851;51.166;4.760;2023-04-28T09:06:59;13.50;99.90
27384;DHT22;14851;51.166;4.760;2023-04-28T09:09:26;13.60;99.90
27384;DHT22;14851;51.166;4.760;2023-04-28T09:12:01;13.70;99.90
27384;DHT22;14851;51.166;4.760;2023-04-28T09:14:30;13.70;99.90
27384;DHT22;14851;51.166;4.760;2023-04-28T09:16:57;13.70;99.90
27384;DHT22;14851;51.166;4.760;2023-04-28T09:19:35;13.80;99.90
27384;DHT22;14851;51.166;4.760;2023-04-28T09:22:04;13.80;99.90
27384;DHT22;14851;51.166;4.760;2023-04-28T09:24:40;13.90;99.90
27384;DHT22;14851;51.166;4.760;2023-04-28T09:27:08;14.00;99.90
27384;DHT22;14851;51.166;4.760;2023-04-28T09:29:51;14.10;99.90
27384;DHT22;14851;51.166;4.760;2023-04-28T09:32:19;14.10;99.90
27384;DHT22;14851;51.166;4.760;2023-04-28T09:34:47;14.20;99.90
27384;DHT22;14851;51.166;4.760;2023-04-28T09:37:15;14.20;99.90
27384;DHT22;14851;51.166;4.760;2023-04-28T09:39:46;14.20;99.90
27384;DHT22;14851;51.166;4.760;2023-04-28T09:42:35;14.20;99.90
27384;DHT22;14851;51.166;4.760;2023-04-28T09:45:05;14.30;99.90
27384;DHT22;14851;51.166;4.760;2023-04-28T09:47:34;14.30;99.90
27384;DHT22;14851;51.166;4.760;2023-04-28T09:50:02;14.40;99.90
27384;DHT22;14851;51.166;4.760;2023-04-28T09:52:28;14.40;99.90
27384;DHT22;14851;51.166;4.760;2023-04-28T09:54:55;14.50;99.90
27384;DHT22;14851;51.166;4.760;2023-04-28T09:57:22;14.50;99.90
27384;DHT22;14851;51.166;4.760;2023-04-28T09:59:50;14.50;99.90
27384;DHT22;14851;51.166;4.760;2023-04-28T10:02:17;14.50;99.90
27384;DHT22;14851;51.166;4.760;2023-04-28T10:04:47;14.60;99.90
27384;DHT22;14851;51.166;4.760;2023-04-28T10:07:17;14.60;99.90
27384;DHT22;14851;51.166;4.760;2023-04-28T10:09:47;14.60;99.90
27384;DHT22;14851;51.166;4.760;2023-04-28T10:12:17;14.60;99.90
27384;DHT22;14851;51.166;4.760;2023-04-28T10:14:44;14.60;99.90
27384;DHT22;14851;51.166;4.760;2023-04-28T10:17:10;14.70;99.90
27384;DHT22;14851;51.166;4.760;2023-04-28T10:19:48;14.80;99.90
27384;DHT22;14851;51.166;4.760;2023-04-28T10:22:28;14.80;99.90
27384;DHT22;14851;51.166;4.760;2023-04-28T10:27:41;14.90;99.90
27384;DHT22;14851;51.166;4.760;2023-04-28T10:30:12;14.80;99.90
27384;DHT22;14851;51.166;4.760;2023-04-28T10:32:41;14.80;99.90
27384;DHT22;14851;51.166;4.760;2023-04-28T10:38:13;14.80;99.90
27384;DHT22;14851;51.166;4.760;2023-04-28T10:43:10;14.90;99.90
27384;DHT22;14851;51.166;4.760;2023-04-28T10:56:10;15.10;99.90
27384;DHT22;14851;51.166;4.760;2023-04-28T10:58:37;15.20;99.90
27384;DHT22;14851;51.166;4.760;2023-04-28T11:03:55;15.30;99.90
27384;DHT22;14851;51.166;4.760;2023-04-28T11:06:25;15.30;99.90
27384;DHT22;14851;51.166;4.760;2023-04-28T11:08:53;15.30;99.90
27384;DHT22;14851;51.166;4.760;2023-04-28T11:11:21;15.40;99.90
27384;DHT22;14851;51.166;4.760;2023-04-28T11:13:49;15.40;99.90
27384;DHT22;14851;51.166;4.760;2023-04-28T11:16:17;15.40;99.90
27384;DHT22;14851;51.166;4.760;2023-04-28T11:18:56;15.40;99.90
27384;DHT22;14851;51.166;4.760;2023-04-28T11:21:26;15.30;99.90
27384;DHT22;14851;51.166;4.760;2023-04-28T11:23:52;15.40;99.90
27384;DHT22;14851;51.166;4.760;2023-04-28T11:26:21;15.40;99.90
27384;DHT22;14851;51.166;4.760;2023-04-28T11:28:53;15.40;99.90
27384;DHT22;14851;51.166;4.760;2023-04-28T11:31:20;15.30;99.90
27384;DHT22;14851;51.166;4.760;2023-04-28T11:34:11;15.30;99.90
27384;DHT22;14851;51.166;4.760;2023-04-28T11:36:39;15.40;99.90
27384;DHT22;14851;51.166;4.760;2023-04-28T11:39:09;15.40;99.90
27384;DHT22;14851;51.166;4.760;2023-04-28T11:41:36;15.50;99.90
27384;DHT22;14851;51.166;4.760;2023-04-28T11:44:12;15.50;99.90
27384;DHT22;14851;51.166;4.760;2023-04-28T11:47:05;15.50;99.90
27384;DHT22;14851;51.166;4.760;2023-04-28T11:52:07;15.50;99.90
27384;DHT22;14851;51.166;4.760;2023-04-28T11:54:34;15.50;99.90
27384;DHT22;14851;51.166;4.760;2023-04-28T11:57:03;15.50;99.90
27384;DHT22;14851;51.166;4.760;2023-04-28T11:59:34;15.50;99.90
27384;DHT22;14851;51.166;4.760;2023-04-28T12:02:02;15.40;99.90
27384;DHT22;14851;51.166;4.760;2023-04-28T12:04:41;15.40;99.90
27384;DHT22;14851;51.166;4.760;2023-04-28T12:09:37;15.40;99.90
27384;DHT22;14851;51.166;4.760;2023-04-28T12:12:04;15.40;99.90
27384;DHT22;14851;51.166;4.760;2023-04-28T12:14:32;15.30;99.90
27384;DHT22;14851;51.166;4.760;2023-04-28T12:17:02;15.20;99.90
27384;DHT22;14851;51.166;4.760;2023-04-28T12:19:28;15.20;99.90
27384;DHT22;14851;51.166;4.760;2023-04-28T12:21:59;15.20;99.90
27384;DHT22;14851;51.166;4.760;2023-04-28T12:24:28;15.20;99.90
27384;DHT22;14851;51.166;4.760;2023-04-28T12:26:54;15.20;99.90
27384;DHT22;14851;51.166;4.760;2023-04-28T12:29:39;15.20;99.90
27384;DHT22;14851;51.166;4.760;2023-04-28T12:32:07;15.20;99.90
27384;DHT22;14851;51.166;4.760;2023-04-28T12:34:33;15.20;99.90
27384;DHT22;14851;51.166;4.760;2023-04-28T12:37:01;15.30;99.90
27384;DHT22;14851;51.166;4.760;2023-04-28T12:39:27;15.30;99.90
27384;DHT22;14851;51.166;4.760;2023-04-28T12:41:53;15.30;99.90
27384;DHT22;14851;51.166;4.760;2023-04-28T12:44:24;15.30;99.90
27384;DHT22;14851;51.166;4.760;2023-04-28T12:46:52;15.20;99.90
27384;DHT22;14851;51.166;4.760;2023-04-28T12:49:19;15.20;99.90
27384;DHT22;14851;51.166;4.760;2023-04-28T12:51:45;15.20;99.90
27384;DHT22;14851;51.166;4.760;2023-04-28T12:54:11;15.30;99.90
27384;DHT22;14851;51.166;4.760;2023-04-28T12:56:36;15.20;99.90
27384;DHT22;14851;51.166;4.760;2023-04-28T12:59:05;15.30;99.90
27384;DHT22;14851;51.166;4.760;2023-04-28T13:01:33;15.30;99.90
27384;DHT22;14851;51.166;4.760;2023-04-28T13:03:59;15.30;99.90
27384;DHT22;14851;51.166;4.760;2023-04-28T13:06:26;15.30;99.90
27384;DHT22;14851;51.166;4.760;2023-04-28T13:08:52;15.40;99.90
27384;DHT22;14851;51.166;4.760;2023-04-28T13:11:20;15.40;99.90
27384;DHT22;14851;51.166;4.760;2023-04-28T13:13:54;15.50;99.90
27384;DHT22;14851;51.166;4.760;2023-04-28T13:16:22;15.40;99.90
27384;DHT22;14851;51.166;4.760;2023-04-28T13:18:50;15.40;99.90
27384;DHT22;14851;51.166;4.760;2023-04-28T13:21:16;15.40;99.90
27384;DHT22;14851;51.166;4.760;2023-04-28T13:23:42;15.40;99.90
27384;DHT22;14851;51.166;4.760;2023-04-28T13:26:08;15.40;99.90
27384;DHT22;14851;51.166;4.760;2023-04-28T13:28:34;15.40;99.90
27384;DHT22;14851;51.166;4.760;2023-04-28T13:31:00;15.30;99.90
27384;DHT22;14851;51.166;4.760;2023-04-28T13:33:26;15.40;99.90
27384;DHT22;14851;51.166;4.760;2023-04-28T13:35:58;15.30;99.90
27384;DHT22;14851;51.166;4.760;2023-04-28T13:38:29;15.30;99.90
27384;DHT22;14851;51.166;4.760;2023-04-28T13:40:55;15.30;99.90
27384;DHT22;14851;51.166;4.760;2023-04-28T13:43:20;15.30;99.90
27384;DHT22;14851;51.166;4.760;2023-04-28T13:45:51;15.30;99.90
27384;DHT22;14851;51.166;4.760;2023-04-28T13:48:16;15.20;99.90
27384;DHT22;14851;51.166;4.760;2023-04-28T13:50:42;15.20;99.90
27384;DHT22;14851;51.166;4.760;2023-04-28T13:53:08;15.20;99.90
27384;DHT22;14851;51.166;4.760;2023-04-28T13:55:34;15.20;99.90
27384;DHT22;14851;51.166;4.760;2023-04-28T13:58:00;15.20;99.90
27384;DHT22;14851;51.166;4.760;2023-04-28T14:00:33;15.20;99.90
27384;DHT22;14851;51.166;4.760;2023-04-28T14:02:59;15.20;99.90
27384;DHT22;14851;51.166;4.760;2023-04-28T14:05:26;15.20;99.90
27384;DHT22;14851;51.166;4.760;2023-04-28T14:07:55;15.20;99.90
27384;DHT22;14851;51.166;4.760;2023-04-28T14:10:24;15.10;99.90
27384;DHT22;14851;51.166;4.760;2023-04-28T14:12:53;15.20;99.90
27384;DHT22;14851;51.166;4.760;2023-04-28T14:15:21;15.20;99.90
27384;DHT22;14851;51.166;4.760;2023-04-28T14:17:47;15.20;99.90
27384;DHT22;14851;51.166;4.760;2023-04-28T14:20:13;15.20;99.90
27384;DHT22;14851;51.166;4.760;2023-04-28T14:22:39;15.20;99.90
27384;DHT22;14851;51.166;4.760;2023-04-28T14:25:05;15.20;99.90
27384;DHT22;14851;51.166;4.760;2023-04-28T14:27:32;15.20;99.90
27384;DHT22;14851;51.166;4.760;2023-04-28T14:30:01;15.20;99.90
27384;DHT22;14851;51.166;4.760;2023-04-28T14:32:29;15.20;99.90
27384;DHT22;14851;51.166;4.760;2023-04-28T14:34:55;15.20;99.90
27384;DHT22;14851;51.166;4.760;2023-04-28T14:37:20;15.20;99.90
27384;DHT22;14851;51.166;4.760;2023-04-28T14:39:47;15.20;99.90
27384;DHT22;14851;51.166;4.760;2023-04-28T14:42:13;15.20;99.90
27384;DHT22;14851;51.166;4.760;2023-04-28T14:44:41;15.20;99.90
27384;DHT22;14851;51.166;4.760;2023-04-28T14:47:08;15.20;99.90
27384;DHT22;14851;51.166;4.760;2023-04-28T14:49:34;15.20;99.90
27384;DHT22;14851;51.166;4.760;2023-04-28T14:52:00;15.30;99.90
27384;DHT22;14851;51.166;4.760;2023-04-28T14:54:26;15.30;99.90
27384;DHT22;14851;51.166;4.760;2023-04-28T14:56:54;15.30;99.90
27384;DHT22;14851;51.166;4.760;2023-04-28T14:59:20;15.30;99.90
27384;DHT22;14851;51.166;4.760;2023-04-28T15:01:46;15.40;99.90
27384;DHT22;14851;51.166;4.760;2023-04-28T15:04:12;15.40;99.90
27384;DHT22;14851;51.166;4.760;2023-04-28T15:06:38;15.40;99.90
27384;DHT22;14851;51.166;4.760;2023-04-28T15:09:04;15.40;99.90
27384;DHT22;14851;51.166;4.760;2023-04-28T15:11:31;15.40;99.90
27384;DHT22;14851;51.166;4.760;2023-04-28T15:13:57;15.40;99.90
27384;DHT22;14851;51.166;4.760;2023-04-28T15:16:22;15.40;99.90
27384;DHT22;14851;51.166;4.760;2023-04-28T15:18:48;15.40;99.90
27384;DHT22;14851;51.166;4.760;2023-04-28T15:21:16;15.40;99.90
27384;DHT22;14851;51.166;4.760;2023-04-28T15:23:42;15.40;99.90
27384;DHT22;14851;51.166;4.760;2023-04-28T15:26:08;15.40;99.90
27384;DHT22;14851;51.166;4.760;2023-04-28T15:28:35;15.40;99.90
27384;DHT22;14851;51.166;4.760;2023-04-28T15:31:01;15.40;99.90
27384;DHT22;14851;51.166;4.760;2023-04-28T15:33:27;15.40;99.90
27384;DHT22;14851;51.166;4.760;2023-04-28T15:35:53;15.40;99.90
27384;DHT22;14851;51.166;4.760;2023-04-28T15:38:19;15.40;99.90
27384;DHT22;14851;51.166;4.760;2023-04-28T15:40:45;15.40;99.90
27384;DHT22;14851;51.166;4.760;2023-04-28T15:43:11;15.40;99.90
27384;DHT22;14851;51.166;4.760;2023-04-28T15:45:37;15.40;99.90
27384;DHT22;14851;51.166;4.760;2023-04-28T15:48:03;15.40;99.90
27384;DHT22;14851;51.166;4.760;2023-04-28T15:50:31;15.40;99.90
27384;DHT22;14851;51.166;4.760;2023-04-28T15:52:56;15.40;99.90
27384;DHT22;14851;51.166;4.760;2023-04-28T15:55:24;15.40;99.90
27384;DHT22;14851;51.166;4.760;2023-04-28T15:57:50;15.40;99.90
27384;DHT22;14851;51.166;4.760;2023-04-28T16:00:19;15.50;99.90